Time;durP1;ratioP1;P1;durP2;ratioP2;P2;SDS_P1;SDS_P2;PMS_P1;PMS_P2;Temp;Humidity;BMP_temperature;BMP_pressure;BME280_temperature;BME280_humidity;BME280_pressure;Samples;Min_cycle;Max_cycle;Signal;HPM_P1;HPM_P2
2022/07/14 00:00:25;;;;;;;1.43;1.43;;;18.80;99.90;;;;;;501983;237;28747;-71
2022/07/14 00:02:27;;;;;;;2.07;1.87;;;18.80;99.90;;;;;;502155;236;28725;-69
2022/07/14 00:04:28;;;;;;;2.00;1.90;;;18.70;99.90;;;;;;502144;237;28663;-69
2022/07/14 00:06:29;;;;;;;1.60;1.50;;;18.60;99.90;;;;;;502165;236;28703;-72
2022/07/14 00:08:30;;;;;;;1.83;1.73;;;18.60;99.90;;;;;;502153;236;28714;-69
2022/07/14 00:10:32;;;;;;;1.43;1.43;;;18.60;99.90;;;;;;502166;237;29028;-70
2022/07/14 00:12:33;;;;;;;1.47;1.43;;;18.60;99.90;;;;;;502152;236;28742;-74
2022/07/14 00:14:34;;;;;;;1.80;1.70;;;18.70;99.90;;;;;;502147;236;29026;-69
2022/07/14 00:16:35;;;;;;;1.50;1.40;;;18.70;99.90;;;;;;502175;236;29147;-70
2022/07/14 00:18:43;;;;;;;1.33;1.33;;;18.70;99.90;;;;;;502151;236;29190;-70
2022/07/14 00:20:38;;;;;;;1.60;1.60;;;18.60;99.90;;;;;;501651;237;29246;-70
2022/07/14 00:22:40;;;;;;;1.80;1.70;;;18.60;99.90;;;;;;502196;237;28747;-72
2022/07/14 00:24:40;;;;;;;2.00;1.90;;;18.50;99.90;;;;;;502189;236;28617;-69
2022/07/14 00:26:42;;;;;;;1.73;1.63;;;18.50;99.90;;;;;;502202;236;28664;-70
2022/07/14 00:28:43;;;;;;;1.80;1.70;;;18.50;99.90;;;;;;502169;236;28676;-69
2022/07/14 00:30:45;;;;;;;1.77;1.67;;;18.40;99.90;;;;;;502188;236;28656;-70
2022/07/14 00:32:45;;;;;;;1.73;1.63;;;18.30;99.90;;;;;;502053;237;28683;-70
2022/07/14 00:34:47;;;;;;;1.90;1.80;;;18.20;99.90;;;;;;501351;236;28728;-69
2022/07/14 00:36:48;;;;;;;2.13;1.60;;;18.20;99.90;;;;;;501802;236;28676;-70
2022/07/14 00:38:49;;;;;;;2.10;2.00;;;18.30;99.90;;;;;;501691;236;29079;-69
2022/07/14 00:40:50;;;;;;;2.10;1.93;;;18.30;99.90;;;;;;502050;236;29202;-69
2022/07/14 00:42:52;;;;;;;1.80;1.70;;;18.20;99.90;;;;;;502171;236;29168;-72
2022/07/14 00:44:53;;;;;;;2.03;1.93;;;18.10;99.90;;;;;;502178;236;29230;-71
2022/07/14 00:46:54;;;;;;;2.00;1.90;;;18.00;99.90;;;;;;502198;236;28742;-70
2022/07/14 00:48:55;;;;;;;1.60;1.50;;;18.00;99.90;;;;;;502193;236;28739;-69
2022/07/14 00:50:57;;;;;;;1.90;1.80;;;18.00;99.90;;;;;;502213;236;28701;-69
2022/07/14 00:52:58;;;;;;;2.13;1.50;;;18.00;99.90;;;;;;502211;236;28667;-71
2022/07/14 00:54:59;;;;;;;2.00;1.60;;;17.90;99.90;;;;;;502172;237;28731;-69
2022/07/14 00:57:01;;;;;;;1.80;1.70;;;17.80;99.90;;;;;;502193;235;28683;-70
2022/07/14 00:59:02;;;;;;;1.83;1.73;;;17.80;99.90;;;;;;502179;236;29287;-74
2022/07/14 01:01:03;;;;;;;1.90;1.80;;;17.70;99.90;;;;;;502217;236;28727;-70
2022/07/14 01:03:05;;;;;;;2.00;1.90;;;17.80;99.90;;;;;;502231;236;28664;-70
2022/07/14 01:05:06;;;;;;;2.03;1.90;;;17.90;99.90;;;;;;502164;237;29158;-70
2022/07/14 01:07:07;;;;;;;1.93;1.83;;;17.90;99.90;;;;;;502226;236;29175;-69
2022/07/14 01:09:08;;;;;;;2.17;1.97;;;17.90;99.90;;;;;;502205;236;29192;-72
2022/07/14 01:11:09;;;;;;;2.00;1.90;;;17.90;99.90;;;;;;502218;236;29100;-70
2022/07/14 01:13:11;;;;;;;2.23;2.13;;;17.90;99.90;;;;;;502227;236;28731;-70
2022/07/14 01:15:12;;;;;;;2.00;1.90;;;17.90;99.90;;;;;;502198;236;28671;-69
2022/07/14 01:17:13;;;;;;;1.73;1.63;;;17.80;99.90;;;;;;502218;236;28739;-70
2022/07/14 01:19:14;;;;;;;1.90;1.80;;;17.80;99.90;;;;;;502225;236;28680;-73
2022/07/14 01:21:16;;;;;;;1.87;1.80;;;17.80;99.90;;;;;;502237;236;28742;-69
2022/07/14 01:23:17;;;;;;;2.10;1.70;;;17.80;99.90;;;;;;502228;237;28691;-70
2022/07/14 01:25:18;;;;;;;1.97;1.87;;;17.70;99.90;;;;;;502140;236;29201;-69
2022/07/14 01:27:19;;;;;;;2.07;1.97;;;17.70;99.90;;;;;;502218;236;28636;-72
2022/07/14 01:29:21;;;;;;;1.90;1.80;;;17.70;99.90;;;;;;502230;236;29146;-71
2022/07/14 01:31:22;;;;;;;2.20;2.10;;;17.60;99.90;;;;;;502234;236;29197;-69
2022/07/14 01:33:23;;;;;;;2.33;2.23;;;17.70;99.90;;;;;;498149;235;29274;-71
2022/07/14 01:35:24;;;;;;;2.20;2.10;;;17.70;99.90;;;;;;498967;235;31090;-70
2022/07/14 01:37:26;;;;;;;2.07;1.97;;;17.70;99.90;;;;;;502188;236;28695;-70
2022/07/14 01:39:27;;;;;;;2.30;2.20;;;17.70;99.90;;;;;;502212;236;28773;-69
2022/07/14 01:41:29;;;;;;;2.10;2.00;;;17.60;99.90;;;;;;502176;237;28687;-69
2022/07/14 01:43:29;;;;;;;2.00;1.80;;;17.50;99.90;;;;;;502096;237;28688;-70
2022/07/14 01:45:32;;;;;;;2.13;2.03;;;17.40;99.90;;;;;;502159;236;28667;-69
2022/07/14 01:47:32;;;;;;;1.93;1.83;;;17.40;99.90;;;;;;502045;237;28691;-69
2022/07/14 01:49:34;;;;;;;2.00;1.90;;;17.40;99.90;;;;;;502188;236;28668;-70
2022/07/14 01:51:34;;;;;;;2.10;2.00;;;17.40;99.90;;;;;;502156;236;28806;-69
2022/07/14 01:53:36;;;;;;;2.10;2.00;;;17.50;99.90;;;;;;502168;237;28660;-70
2022/07/14 01:55:37;;;;;;;2.20;2.10;;;17.50;99.90;;;;;;502158;236;29146;-72
2022/07/14 01:57:38;;;;;;;2.00;1.90;;;17.50;99.90;;;;;;502199;236;29262;-70
2022/07/14 01:59:39;;;;;;;2.80;2.60;;;17.50;99.90;;;;;;502173;236;29166;-70
2022/07/14 02:01:41;;;;;;;2.03;1.93;;;17.50;99.90;;;;;;502189;236;28706;-69
2022/07/14 02:03:44;;;;;;;2.00;1.90;;;17.40;99.90;;;;;;502184;236;28652;-70
2022/07/14 02:05:43;;;;;;;2.50;2.30;;;17.40;99.90;;;;;;501617;237;28667;-72
2022/07/14 02:07:44;;;;;;;2.37;2.27;;;17.20;99.90;;;;;;502139;236;28737;-69
2022/07/14 02:12:11;;;;;;;2.17;2.03;;;17.20;99.90;;;;;;502165;237;28711;-69
2022/07/14 02:14:12;;;;;;;2.30;2.20;;;17.20;99.90;;;;;;502198;236;28675;-69
2022/07/14 02:16:13;;;;;;;2.10;2.00;;;17.20;99.90;;;;;;502192;237;29101;-73
2022/07/14 02:18:15;;;;;;;2.83;2.63;;;17.10;99.90;;;;;;502211;237;28715;-69
2022/07/14 02:20:16;;;;;;;2.27;2.17;;;17.10;99.90;;;;;;502233;236;29261;-70
2022/07/14 02:22:17;;;;;;;2.40;2.30;;;17.00;99.90;;;;;;502233;236;29202;-70
2022/07/14 02:24:18;;;;;;;5.73;2.33;;;17.00;99.90;;;;;;502223;236;29170;-70
2022/07/14 02:26:20;;;;;;;2.17;2.07;;;17.10;99.90;;;;;;502219;234;29282;-73
2022/07/14 02:28:21;;;;;;;2.10;2.00;;;17.00;99.90;;;;;;502211;236;28663;-69
2022/07/14 02:30:22;;;;;;;2.27;2.17;;;17.00;99.90;;;;;;502215;236;28667;-70
2022/07/14 02:32:25;;;;;;;2.73;2.63;;;17.00;99.90;;;;;;502238;236;28640;-69
2022/07/14 02:34:27;;;;;;;2.43;2.33;;;17.00;99.90;;;;;;502217;236;28672;-70
2022/07/14 02:36:28;;;;;;;2.40;2.30;;;16.90;99.90;;;;;;502202;236;28680;-75
2022/07/14 02:38:29;;;;;;;2.30;2.20;;;16.90;99.90;;;;;;502174;235;29124;-69
2022/07/14 02:40:30;;;;;;;2.43;2.33;;;16.90;99.90;;;;;;502211;237;29162;-69
2022/07/14 02:42:32;;;;;;;2.30;2.20;;;16.80;99.90;;;;;;502206;236;29154;-70
2022/07/14 02:44:33;;;;;;;2.37;2.17;;;16.80;99.90;;;;;;502184;236;28726;-69
2022/07/14 02:46:34;;;;;;;2.50;2.40;;;16.70;99.90;;;;;;502208;236;28744;-74
2022/07/14 02:48:35;;;;;;;2.90;2.40;;;16.70;99.90;;;;;;502213;236;28716;-71
2022/07/14 02:50:37;;;;;;;2.37;2.17;;;16.80;99.90;;;;;;502176;237;28668;-70
2022/07/14 02:52:38;;;;;;;2.50;2.30;;;16.80;99.90;;;;;;502162;236;28754;-69
2022/07/14 02:54:39;;;;;;;2.37;2.27;;;16.80;99.90;;;;;;502187;237;28669;-69
2022/07/14 02:56:40;;;;;;;2.20;2.10;;;16.80;99.90;;;;;;502190;236;28726;-71
2022/07/14 02:58:42;;;;;;;2.40;2.20;;;16.70;99.90;;;;;;502180;236;28723;-70
2022/07/14 03:00:43;;;;;;;2.20;2.10;;;16.60;99.90;;;;;;502200;236;28734;-69
2022/07/14 03:02:44;;;;;;;2.10;2.00;;;16.60;99.90;;;;;;502153;236;29089;-69
2022/07/14 03:04:45;;;;;;;3.13;2.83;;;16.60;99.90;;;;;;502195;236;29139;-70
2022/07/14 03:06:47;;;;;;;2.87;2.67;;;16.50;99.90;;;;;;502136;236;29274;-69
2022/07/14 03:08:48;;;;;;;2.63;2.17;;;16.50;99.90;;;;;;502191;236;29182;-69
2022/07/14 03:10:49;;;;;;;2.40;2.20;;;16.60;99.90;;;;;;502213;236;28742;-70
2022/07/14 03:12:50;;;;;;;2.17;2.07;;;16.60;99.90;;;;;;502098;236;28647;-69
2022/07/14 03:14:52;;;;;;;2.40;2.30;;;16.50;99.90;;;;;;502010;236;28730;-70
2022/07/14 03:16:53;;;;;;;2.20;2.10;;;16.50;99.90;;;;;;502184;236;28667;-73
2022/07/14 03:18:54;;;;;;;2.80;2.60;;;16.50;99.90;;;;;;502206;237;28628;-69
2022/07/14 03:20:55;;;;;;;2.50;2.40;;;16.50;99.90;;;;;;502196;236;28736;-69
2022/07/14 03:22:57;;;;;;;2.93;2.57;;;16.60;99.90;;;;;;502176;236;28720;-69
2022/07/14 03:24:58;;;;;;;2.60;2.40;;;16.60;99.90;;;;;;502174;236;29180;-70
2022/07/14 03:26:59;;;;;;;2.63;2.50;;;16.70;99.90;;;;;;502189;237;29254;-71
2022/07/14 03:29:00;;;;;;;2.30;2.20;;;16.70;99.90;;;;;;502185;236;29181;-70
2022/07/14 03:31:02;;;;;;;2.37;2.27;;;16.70;99.90;;;;;;502178;236;29202;-70
2022/07/14 03:33:03;;;;;;;2.60;2.40;;;16.70;99.90;;;;;;502176;236;28627;-69
2022/07/14 03:35:06;;;;;;;2.57;2.40;;;16.70;99.90;;;;;;502165;237;28680;-69
2022/07/14 03:37:05;;;;;;;2.57;2.43;;;16.60;99.90;;;;;;502078;237;28720;-72
2022/07/14 03:39:07;;;;;;;2.40;2.30;;;16.50;99.90;;;;;;502192;236;28640;-69
2022/07/14 03:41:08;;;;;;;2.60;2.40;;;16.60;99.90;;;;;;502156;236;28695;-70
2022/07/14 03:43:09;;;;;;;2.33;2.23;;;16.50;99.90;;;;;;502185;236;28645;-69
2022/07/14 03:45:10;;;;;;;2.43;2.33;;;16.50;99.90;;;;;;502185;237;28758;-69
2022/07/14 03:47:12;;;;;;;2.30;2.20;;;16.50;99.90;;;;;;502164;236;28681;-74
2022/07/14 03:49:13;;;;;;;2.40;2.20;;;16.40;99.90;;;;;;502139;236;29092;-70
2022/07/14 03:51:14;;;;;;;2.43;2.33;;;16.40;99.90;;;;;;502074;236;29254;-70
2022/07/14 03:53:15;;;;;;;2.43;2.23;;;16.30;99.90;;;;;;502187;236;29210;-69
2022/07/14 03:55:17;;;;;;;2.60;2.23;;;16.30;99.90;;;;;;502215;236;29210;-70
2022/07/14 03:57:18;;;;;;;2.37;2.27;;;16.30;99.90;;;;;;502169;236;28728;-70
2022/07/14 03:59:19;;;;;;;2.37;2.27;;;16.40;99.90;;;;;;502210;236;28619;-69
2022/07/14 04:01:20;;;;;;;3.20;2.30;;;16.40;99.90;;;;;;502219;236;28677;-70
2022/07/14 04:03:22;;;;;;;2.57;2.37;;;16.40;99.90;;;;;;502190;236;28657;-71
2022/07/14 04:05:23;;;;;;;2.00;1.90;;;16.40;99.90;;;;;;502202;236;28757;-70
2022/07/14 04:07:24;;;;;;;2.40;2.30;;;16.50;99.90;;;;;;502113;236;28687;-71
2022/07/14 04:09:25;;;;;;;2.30;2.20;;;16.40;99.90;;;;;;502176;237;28634;-69
2022/07/14 04:11:27;;;;;;;4.00;2.47;;;16.50;99.90;;;;;;502180;236;28694;-70
2022/07/14 04:13:29;;;;;;;2.30;2.20;;;16.60;99.90;;;;;;502185;236;28665;-69
2022/07/14 04:15:30;;;;;;;2.47;2.30;;;16.50;99.90;;;;;;502093;237;29198;-69
2022/07/14 04:17:30;;;;;;;1.90;1.80;;;16.50;99.90;;;;;;502137;237;29235;-71
2022/07/14 04:19:32;;;;;;;2.23;2.13;;;16.50;99.90;;;;;;502193;236;29118;-69
2022/07/14 04:21:33;;;;;;;2.57;2.40;;;16.70;99.90;;;;;;502163;236;28692;-70
2022/07/14 04:23:34;;;;;;;2.40;2.10;;;16.70;99.90;;;;;;502179;236;28697;-69
2022/07/14 04:25:36;;;;;;;2.70;2.53;;;16.60;99.90;;;;;;502174;236;28714;-70
2022/07/14 04:27:37;;;;;;;2.67;2.50;;;16.60;99.90;;;;;;502173;236;28661;-71
2022/07/14 04:29:38;;;;;;;2.90;2.70;;;16.60;99.90;;;;;;502170;236;28676;-69
2022/07/14 04:31:39;;;;;;;3.27;2.97;;;16.60;99.90;;;;;;502191;236;28766;-70
2022/07/14 04:33:41;;;;;;;2.57;2.47;;;16.70;99.90;;;;;;502168;236;28629;-69
2022/07/14 04:35:42;;;;;;;2.30;2.20;;;16.90;99.90;;;;;;502231;236;28641;-70
2022/07/14 04:37:43;;;;;;;2.87;2.67;;;17.00;99.90;;;;;;502203;236;28746;-70
2022/07/14 04:39:44;;;;;;;2.70;2.60;;;17.00;99.90;;;;;;501592;236;29134;-69
2022/07/14 04:41:46;;;;;;;3.10;2.53;;;17.00;99.90;;;;;;502206;236;29176;-69
2022/07/14 04:43:47;;;;;;;2.50;2.40;;;17.00;99.90;;;;;;502066;236;29227;-70
2022/07/14 04:45:48;;;;;;;2.63;2.43;;;17.10;99.90;;;;;;502172;237;28678;-71
2022/07/14 04:47:49;;;;;;;2.60;2.40;;;17.10;99.90;;;;;;502165;236;28760;-71
2022/07/14 04:52:10;;;;;;;3.20;2.60;;;17.10;99.90;;;;;;502188;237;29290;-70
2022/07/14 04:54:11;;;;;;;2.53;2.40;;;17.10;99.90;;;;;;502183;234;28688;-71
2022/07/14 04:56:12;;;;;;;3.33;2.70;;;17.10;99.90;;;;;;502199;236;28633;-70
2022/07/14 04:58:14;;;;;;;2.77;2.67;;;17.10;99.90;;;;;;502197;236;28665;-70
2022/07/14 05:00:15;;;;;;;2.67;2.57;;;17.10;99.90;;;;;;502202;236;28724;-70
2022/07/14 05:02:16;;;;;;;2.60;2.50;;;17.10;99.90;;;;;;502196;236;28746;-69
2022/07/14 05:04:18;;;;;;;2.80;2.57;;;17.20;99.90;;;;;;502192;236;28764;-69
2022/07/14 05:06:19;;;;;;;3.00;2.90;;;17.20;99.90;;;;;;502207;237;28697;-70
2022/07/14 05:08:21;;;;;;;2.80;2.63;;;17.40;99.90;;;;;;502171;236;28704;-70
2022/07/14 05:10:21;;;;;;;2.67;2.57;;;17.50;99.90;;;;;;502038;237;28637;-69
2022/07/14 05:12:22;;;;;;;2.97;2.50;;;17.60;99.90;;;;;;502196;236;29196;-70
2022/07/14 05:14:24;;;;;;;2.90;2.53;;;17.70;99.90;;;;;;502174;236;29253;-72
2022/07/14 05:16:25;;;;;;;2.90;2.80;;;17.80;99.90;;;;;;502174;237;29092;-74
2022/07/14 05:18:26;;;;;;;3.00;2.80;;;18.00;99.90;;;;;;502160;236;28688;-70
2022/07/14 05:20:28;;;;;;;2.43;2.33;;;18.10;99.90;;;;;;502190;236;28685;-69
2022/07/14 05:22:29;;;;;;;2.80;2.60;;;18.20;99.90;;;;;;502191;236;28793;-69
2022/07/14 05:24:30;;;;;;;2.10;2.00;;;18.20;99.90;;;;;;502115;236;28763;-70
2022/07/14 05:26:31;;;;;;;2.40;2.30;;;18.30;99.90;;;;;;502180;237;28636;-70
2022/07/14 05:28:33;;;;;;;2.30;2.20;;;18.40;99.90;;;;;;502145;236;28670;-71
2022/07/14 05:30:34;;;;;;;3.00;2.80;;;18.50;99.90;;;;;;502178;236;28667;-73
2022/07/14 05:32:38;;;;;;;2.70;2.50;;;18.70;99.90;;;;;;502190;236;28657;-71
2022/07/14 05:34:39;;;;;;;2.80;2.60;;;18.80;99.90;;;;;;502164;236;28641;-70
2022/07/14 05:36:40;;;;;;;2.60;2.50;;;19.00;99.90;;;;;;502188;236;28697;-70
2022/07/14 05:38:42;;;;;;;3.00;2.90;;;19.00;99.90;;;;;;502171;236;29152;-69
2022/07/14 05:40:43;;;;;;;2.93;2.70;;;19.00;99.90;;;;;;502176;236;29187;-70
2022/07/14 05:42:44;;;;;;;2.70;2.50;;;19.10;99.90;;;;;;502205;236;28657;-73
2022/07/14 05:44:46;;;;;;;2.60;2.50;;;19.10;99.90;;;;;;502181;236;28644;-70
2022/07/14 05:46:47;;;;;;;2.93;2.83;;;19.20;99.90;;;;;;502895;235;29225;-71
2022/07/14 05:48:48;;;;;;;2.63;2.53;;;19.30;99.90;;;;;;502950;236;28827;-73
2022/07/14 05:50:50;;;;;;;2.60;2.50;;;19.50;99.90;;;;;;502794;236;28770;-70
2022/07/14 05:52:51;;;;;;;2.50;2.40;;;19.70;99.90;;;;;;503123;236;29375;-71
2022/07/14 05:54:52;;;;;;;2.60;2.40;;;19.90;99.90;;;;;;503026;236;29238;-70
2022/07/14 05:56:53;;;;;;;2.10;2.00;;;20.00;99.90;;;;;;503102;236;29281;-70
2022/07/14 05:58:54;;;;;;;2.33;2.23;;;20.20;99.90;;;;;;503071;236;28786;-76
2022/07/14 06:00:56;;;;;;;2.60;2.40;;;20.30;99.90;;;;;;503077;236;28856;-73
2022/07/14 06:02:57;;;;;;;2.03;1.93;;;20.50;99.90;;;;;;503099;236;28814;-72
2022/07/14 06:04:58;;;;;;;3.27;3.00;;;20.60;99.90;;;;;;503059;236;28820;-70
2022/07/14 06:06:59;;;;;;;2.27;2.17;;;20.70;99.90;;;;;;503056;236;28894;-70
2022/07/14 06:09:01;;;;;;;2.43;2.33;;;20.80;99.90;;;;;;503062;236;29246;-73
2022/07/14 06:11:03;;;;;;;2.03;1.93;;;20.80;99.90;;;;;;503051;236;29174;-70
2022/07/14 06:13:03;;;;;;;2.23;2.13;;;20.80;99.90;;;;;;503071;236;28863;-71
2022/07/14 06:15:08;;;;;;;2.17;2.03;;;20.90;99.90;;;;;;503078;236;28802;-70
2022/07/14 06:17:06;;;;;;;1.93;1.83;;;20.90;99.90;;;;;;502911;236;29372;-70
2022/07/14 06:19:07;;;;;;;2.43;2.33;;;21.00;99.90;;;;;;503135;236;29293;-74
2022/07/14 06:21:08;;;;;;;2.00;1.90;;;21.10;99.90;;;;;;503089;236;29697;-70
2022/07/14 06:23:09;;;;;;;3.37;2.00;;;21.10;99.90;;;;;;503107;236;28821;-71
2022/07/14 06:25:11;;;;;;;2.30;2.20;;;21.20;99.90;;;;;;502833;236;28752;-70
2022/07/14 06:27:12;;;;;;;2.50;2.20;;;21.20;99.90;;;;;;502920;236;28769;-70
2022/07/14 06:29:13;;;;;;;2.20;2.10;;;21.20;99.90;;;;;;503055;236;28896;-74
2022/07/14 06:31:14;;;;;;;6.50;2.23;;;21.20;99.90;;;;;;503093;236;28790;-70
2022/07/14 06:33:16;;;;;;;1.90;1.80;;;21.30;99.90;;;;;;503115;236;29183;-71
2022/07/14 06:35:17;;;;;;;2.40;2.30;;;21.20;99.90;;;;;;503102;236;28884;-70
2022/07/14 06:37:18;;;;;;;2.73;2.20;;;21.30;99.90;;;;;;503053;236;29145;-70
2022/07/14 06:39:19;;;;;;;2.13;2.03;;;21.30;99.90;;;;;;503109;236;28799;-72
2022/07/14 06:41:21;;;;;;;2.50;2.10;;;21.20;99.90;;;;;;503065;236;29296;-70
2022/07/14 06:43:22;;;;;;;2.73;2.53;;;21.20;99.90;;;;;;503078;236;29236;-70
2022/07/14 06:45:23;;;;;;;2.40;2.30;;;21.30;99.90;;;;;;503086;236;30133;-70
2022/07/14 06:47:24;;;;;;;2.60;2.50;;;21.30;99.90;;;;;;503025;236;29205;-70
2022/07/14 06:49:26;;;;;;;2.40;2.20;;;21.30;99.90;;;;;;503111;236;28789;-71
2022/07/14 06:51:28;;;;;;;2.20;2.00;;;21.30;99.90;;;;;;503099;236;28756;-70
2022/07/14 06:53:28;;;;;;;2.60;2.40;;;21.40;99.90;;;;;;502983;236;28989;-71
2022/07/14 06:55:29;;;;;;;2.63;2.43;;;21.60;99.90;;;;;;503107;236;28799;-73
2022/07/14 06:57:31;;;;;;;2.00;1.90;;;21.70;99.90;;;;;;503064;236;28767;-70
2022/07/14 06:59:32;;;;;;;2.50;2.30;;;21.70;99.90;;;;;;503126;236;29280;-71
2022/07/14 07:01:34;;;;;;;2.57;2.37;;;21.80;99.90;;;;;;503100;236;29326;-70
2022/07/14 07:03:34;;;;;;;2.63;2.50;;;21.90;99.90;;;;;;503084;236;29362;-70
2022/07/14 07:07:55;;;;;;;2.10;2.00;;;22.00;99.90;;;;;;503030;236;28776;-70
2022/07/14 07:09:57;;;;;;;2.30;2.20;;;22.00;99.90;;;;;;503122;236;28876;-71
2022/07/14 07:11:58;;;;;;;2.03;1.93;;;22.10;99.90;;;;;;503112;236;28805;-72
2022/07/14 07:13:59;;;;;;;1.80;1.70;;;22.20;99.90;;;;;;503104;236;28756;-70
2022/07/14 07:16:00;;;;;;;1.97;1.87;;;22.50;99.90;;;;;;503091;236;28818;-72
2022/07/14 07:18:04;;;;;;;2.17;2.03;;;22.70;99.90;;;;;;502887;236;28801;-70
2022/07/14 07:20:03;;;;;;;1.77;1.67;;;22.70;99.90;;;;;;502962;236;28900;-70
2022/07/14 07:22:04;;;;;;;1.90;1.80;;;22.70;99.90;;;;;;502555;236;28824;-74
2022/07/14 07:24:05;;;;;;;1.93;1.83;;;22.80;99.90;;;;;;502876;236;29376;-70
2022/07/14 07:26:07;;;;;;;2.23;2.13;;;22.80;99.90;;;;;;502992;236;29320;-70
2022/07/14 07:28:08;;;;;;;2.33;2.20;;;23.00;99.90;;;;;;503068;236;30014;-70
2022/07/14 07:30:09;;;;;;;1.90;1.73;;;23.20;99.90;;;;;;503031;236;29380;-70
2022/07/14 07:32:11;;;;;;;2.27;2.17;;;23.20;99.90;;;;;;503077;236;28797;-72
2022/07/14 07:34:12;;;;;;;2.30;2.20;;;23.30;99.90;;;;;;503050;236;28839;-70
2022/07/14 07:36:13;;;;;;;2.80;2.27;;;23.30;99.90;;;;;;503079;236;28806;-70
2022/07/14 07:38:14;;;;;;;2.53;2.30;;;23.30;99.90;;;;;;503112;236;28781;-70
2022/07/14 07:40:15;;;;;;;2.30;2.10;;;23.30;99.90;;;;;;503085;236;28851;-70
2022/07/14 07:42:17;;;;;;;2.30;2.10;;;23.30;99.90;;;;;;503111;236;28900;-71
2022/07/14 07:44:18;;;;;;;2.63;2.27;;;23.30;99.90;;;;;;503107;236;28831;-70
2022/07/14 07:46:19;;;;;;;2.47;2.27;;;23.30;99.90;;;;;;503096;236;28798;-70
2022/07/14 07:48:20;;;;;;;3.73;2.47;;;23.30;99.90;;;;;;502902;236;28761;-70
2022/07/14 07:50:22;;;;;;;2.33;2.23;;;23.50;99.90;;;;;;503139;236;29211;-69
2022/07/14 07:52:23;;;;;;;2.50;2.30;;;23.50;99.90;;;;;;503115;236;29257;-72
2022/07/14 07:54:24;;;;;;;2.70;2.17;;;23.60;99.90;;;;;;503095;236;29223;-70
2022/07/14 07:56:25;;;;;;;5.37;2.40;;;23.70;99.90;;;;;;503098;236;28876;-71
2022/07/14 07:58:27;;;;;;;2.37;2.23;;;23.70;99.90;;;;;;503114;236;28787;-70
2022/07/14 08:00:28;;;;;;;3.00;2.80;;;23.80;99.90;;;;;;503113;236;28820;-70
2022/07/14 08:02:29;;;;;;;3.63;2.30;;;23.70;99.90;;;;;;503107;236;28815;-71
2022/07/14 08:04:30;;;;;;;2.50;2.30;;;23.70;99.90;;;;;;503076;236;28811;-70
2022/07/14 08:06:32;;;;;;;2.30;2.10;;;23.80;99.90;;;;;;503093;236;28899;-70
2022/07/14 08:08:33;;;;;;;2.03;1.93;;;23.80;99.90;;;;;;503131;236;28785;-73
2022/07/14 08:10:34;;;;;;;2.27;2.17;;;24.00;99.90;;;;;;503085;236;28769;-70
2022/07/14 08:12:35;;;;;;;2.10;1.90;;;24.00;99.90;;;;;;503094;236;28798;-70
2022/07/14 08:14:49;;;;;;;2.10;2.00;;;24.00;99.90;;;;;;503132;236;29209;-70
2022/07/14 08:16:50;;;;;;;2.20;2.10;;;23.90;99.90;;;;;;503132;236;28855;-70
2022/07/14 08:18:52;;;;;;;2.07;1.93;;;24.00;99.90;;;;;;503116;236;28820;-71
2022/07/14 08:20:53;;;;;;;2.30;2.10;;;24.00;99.90;;;;;;503043;236;28759;-70
2022/07/14 08:22:54;;;;;;;3.07;2.20;;;24.00;99.90;;;;;;503109;236;28856;-70
2022/07/14 08:24:55;;;;;;;2.10;2.00;;;24.10;99.90;;;;;;503110;236;28875;-71
2022/07/14 08:26:56;;;;;;;2.03;1.93;;;24.20;99.90;;;;;;503137;236;29206;-70
2022/07/14 08:28:58;;;;;;;2.50;2.37;;;24.20;99.90;;;;;;503141;236;29329;-72
2022/07/14 08:30:59;;;;;;;3.63;2.60;;;24.30;99.90;;;;;;503149;236;29289;-70
2022/07/14 08:33:00;;;;;;;3.30;2.20;;;24.20;99.90;;;;;;503125;236;28872;-70
2022/07/14 08:35:02;;;;;;;2.40;2.30;;;24.20;99.90;;;;;;503110;236;28801;-70
2022/07/14 08:37:03;;;;;;;2.30;2.20;;;24.20;99.90;;;;;;503081;236;28936;-71
2022/07/14 08:39:08;;;;;;;3.00;1.90;;;24.20;99.90;;;;;;503099;236;28807;-73
2022/07/14 08:41:10;;;;;;;5.33;2.23;;;24.30;99.90;;;;;;503044;236;28882;-72
2022/07/14 08:43:09;;;;;;;4.40;2.43;;;24.50;99.90;;;;;;502997;236;28828;-70
2022/07/14 08:45:10;;;;;;;2.30;2.20;;;24.40;99.90;;;;;;503128;236;29329;-70
2022/07/14 08:47:12;;;;;;;6.60;2.70;;;24.30;99.90;;;;;;503112;236;29971;-70
2022/07/14 08:49:14;;;;;;;3.20;2.23;;;24.40;99.90;;;;;;503144;236;29230;-70
2022/07/14 08:51:14;;;;;;;2.73;2.57;;;24.40;99.90;;;;;;503068;236;29313;-74
2022/07/14 08:53:16;;;;;;;9.73;3.37;;;24.40;99.90;;;;;;503131;236;28775;-70
2022/07/14 08:55:17;;;;;;;2.87;2.57;;;24.50;99.90;;;;;;503119;236;28800;-70
2022/07/14 08:57:18;;;;;;;2.23;2.13;;;24.50;99.90;;;;;;503124;236;28771;-70
2022/07/14 08:59:19;;;;;;;1.90;1.80;;;24.50;99.90;;;;;;503143;236;28864;-70
2022/07/14 09:01:21;;;;;;;2.63;2.40;;;24.50;99.90;;;;;;503110;236;28792;-71
2022/07/14 09:03:22;;;;;;;1.90;1.80;;;24.50;99.90;;;;;;503068;236;29184;-70
2022/07/14 09:05:24;;;;;;;2.73;2.53;;;24.70;99.90;;;;;;503066;236;29300;-70
2022/07/14 09:07:25;;;;;;;6.93;2.10;;;24.80;99.90;;;;;;502972;236;28755;-70
2022/07/14 09:09:26;;;;;;;2.60;2.40;;;24.90;99.90;;;;;;503105;236;28754;-72
2022/07/14 09:11:28;;;;;;;2.30;2.20;;;25.00;99.90;;;;;;503124;236;29160;-70
2022/07/14 09:13:29;;;;;;;2.40;2.23;;;25.00;99.90;;;;;;503149;236;29603;-70
2022/07/14 09:15:45;;;;;;;7.50;2.70;;;25.10;99.90;;;;;;503126;236;29993;-70
2022/07/14 09:17:47;;;;;;;2.63;2.27;;;25.40;99.90;;;;;;503130;236;28742;-71
2022/07/14 09:19:48;;;;;;;2.67;2.10;;;25.60;99.90;;;;;;503169;236;29159;-70
2022/07/14 09:21:49;;;;;;;2.20;2.10;;;25.60;99.90;;;;;;503149;236;29230;-70
2022/07/14 09:23:50;;;;;;;2.33;2.23;;;25.70;99.90;;;;;;503130;236;29331;-71
2022/07/14 09:25:52;;;;;;;2.50;2.30;;;25.80;99.90;;;;;;503066;236;28708;-70
2022/07/14 09:27:53;;;;;;;2.53;2.33;;;25.70;99.90;;;;;;502581;236;45751;-70
2022/07/14 09:29:55;;;;;;;2.80;2.60;;;25.80;99.90;;;;;;503122;236;27398;-69
2022/07/14 09:31:55;;;;;;;2.67;2.43;;;26.00;99.90;;;;;;503045;236;28815;-70
2022/07/14 09:33:57;;;;;;;3.30;2.50;;;26.00;99.90;;;;;;503120;236;29131;-73
2022/07/14 09:35:58;;;;;;;3.33;2.37;;;26.20;99.90;;;;;;503132;236;28796;-72
2022/07/14 09:37:59;;;;;;;3.70;2.90;;;26.10;99.90;;;;;;503114;236;29244;-71
2022/07/14 09:40:01;;;;;;;5.17;2.97;;;25.90;99.90;;;;;;503089;236;29191;-70
2022/07/14 09:42:02;;;;;;;6.20;3.00;;;25.70;99.90;;;;;;503049;236;29310;-70
2022/07/14 09:44:03;;;;;;;3.03;2.30;;;25.70;99.90;;;;;;503125;236;29312;-73
2022/07/14 09:46:04;;;;;;;2.30;2.20;;;25.90;99.90;;;;;;503106;236;28927;-70
2022/07/14 09:48:09;;;;;;;3.03;2.73;;;25.90;99.90;;;;;;503110;236;28802;-70
2022/07/14 09:50:08;;;;;;;2.53;2.33;;;26.00;99.90;;;;;;502914;236;28746;-70
2022/07/14 09:52:08;;;;;;;2.70;2.30;;;26.10;99.90;;;;;;503049;236;28820;-70
2022/07/14 09:54:09;;;;;;;3.00;2.80;;;26.10;99.90;;;;;;503142;236;28792;-73
2022/07/14 09:56:11;;;;;;;2.70;2.50;;;26.00;99.90;;;;;;503102;236;28885;-70
2022/07/14 09:58:12;;;;;;;3.40;2.63;;;26.00;99.90;;;;;;503119;236;28797;-71
2022/07/14 10:00:16;;;;;;;2.63;2.43;;;26.10;99.90;;;;;;503111;236;28811;-70
2022/07/14 10:02:14;;;;;;;4.40;2.80;;;26.30;99.90;;;;;;502953;236;29263;-70
2022/07/14 10:04:16;;;;;;;4.47;2.87;;;26.30;99.90;;;;;;503134;236;29270;-72
2022/07/14 10:06:17;;;;;;;3.30;2.50;;;26.30;99.90;;;;;;503115;236;29327;-70
2022/07/14 10:08:18;;;;;;;3.13;2.40;;;26.20;99.90;;;;;;503052;236;29383;-72
2022/07/14 10:10:19;;;;;;;2.50;2.40;;;26.30;99.90;;;;;;503122;236;28829;-70
2022/07/14 10:12:21;;;;;;;3.20;2.70;;;26.40;99.90;;;;;;503091;236;28785;-71
2022/07/14 10:14:22;;;;;;;2.77;2.57;;;26.50;99.90;;;;;;503104;236;28795;-73
2022/07/14 10:16:23;;;;;;;2.83;2.63;;;26.60;99.90;;;;;;503105;236;28826;-70
2022/07/14 10:18:24;;;;;;;2.70;2.50;;;26.80;99.90;;;;;;503091;236;28783;-71
2022/07/14 10:20:26;;;;;;;4.33;2.67;;;26.80;99.90;;;;;;503140;236;28741;-70
2022/07/14 10:22:27;;;;;;;2.60;2.07;;;26.80;99.90;;;;;;503086;236;28831;-70
2022/07/14 10:24:28;;;;;;;2.30;2.00;;;26.80;99.90;;;;;;503136;236;28881;-71
2022/07/14 10:26:29;;;;;;;2.13;2.03;;;26.70;99.90;;;;;;503119;236;28755;-70
2022/07/14 10:28:31;;;;;;;2.50;2.30;;;26.80;99.90;;;;;;503143;236;29269;-72
2022/07/14 10:30:32;;;;;;;3.40;2.30;;;26.90;99.90;;;;;;503143;236;29393;-70
2022/07/14 10:32:33;;;;;;;2.07;1.97;;;26.80;99.90;;;;;;503120;236;29265;-71
2022/07/14 10:34:34;;;;;;;3.83;2.20;;;26.90;99.90;;;;;;503125;236;28787;-72
2022/07/14 10:36:36;;;;;;;3.60;2.73;;;26.80;99.90;;;;;;503135;236;28766;-70
2022/07/14 10:38:37;;;;;;;2.43;2.13;;;27.20;99.90;;;;;;503084;236;28821;-70